KMSP/MSP METAR and TAF weather

Enter ICAO airport designator
Station Type Date Time Source
KMSP METAR 2021/01/27 12:53 UTC NOAA

KMSP 271253Z 03006KT 10SM OVC080 M12/M19 A3044 RMK AO2 SLP328 T11221189


Station Type Date Time Source
KMSP Decoded METAR 2021/01/27 12:53 UTC NOAA

MINNEAPOLIS-ST PAUL INTERNATIONAL , MN, United States (KMSP) 44-52N 93-13W 265M
Jan 27, 2021 - 07:53 AM EST / 2021.01.27 1253 UTC
Wind: from the NNE (030 degrees) at 7 MPH (6 KT):0
Visibility: 10 mile(s):0
Sky conditions: overcast
Temperature: 10.0 F (-12.2 C)
Windchill: 0 F (-18 C):1
Dew Point: -2.0 F (-18.9 C)
Relative Humidity: 57%
Pressure (altimeter): 30.44 in. Hg (1030 hPa)
ob: KMSP 271253Z 03006KT 10SM OVC080 M12/M19 A3044 RMK AO2 SLP328 T11221189
cycle: 13

Station Type Date Time Source
KMSP TAF 2021/01/27 12:24 UTC NOAA

TAF KMSP 271120Z 2712/2818 02006KT P6SM OVC080
FM280000 VRB03KT P6SM BKN120
FM280900 10005KT P6SM OVC060

Example: see airport list